sensor_id;sensor_type;location;lat;lon;timestamp;P1;durP1;ratioP1;P2;durP2;ratioP2
27580;SDS011;63557;52.302;7.964;2023-08-31T00:04:46;30.92;;;12.15;;
27580;SDS011;63557;52.302;7.964;2023-08-31T00:09:46;23.67;;;12.53;;
27580;SDS011;63557;52.302;7.964;2023-08-31T00:14:46;20.40;;;12.27;;
27580;SDS011;63557;52.302;7.964;2023-08-31T00:19:47;19.07;;;11.40;;
27580;SDS011;63557;52.302;7.964;2023-08-31T00:24:47;28.43;;;12.33;;
27580;SDS011;63557;52.302;7.964;2023-08-31T00:29:48;25.20;;;12.40;;
27580;SDS011;63557;52.302;7.964;2023-08-31T00:34:50;21.40;;;12.15;;
27580;SDS011;63557;52.302;7.964;2023-08-31T00:39:51;19.53;;;12.57;;
27580;SDS011;63557;52.302;7.964;2023-08-31T00:44:52;22.20;;;12.05;;
27580;SDS011;63557;52.302;7.964;2023-08-31T00:49:52;25.37;;;12.83;;
27580;SDS011;63557;52.302;7.964;2023-08-31T00:54:53;23.30;;;12.87;;
27580;SDS011;63557;52.302;7.964;2023-08-31T00:59:54;26.98;;;13.52;;
27580;SDS011;63557;52.302;7.964;2023-08-31T01:05:19;24.23;;;12.82;;
27580;SDS011;63557;52.302;7.964;2023-08-31T01:10:29;26.02;;;14.15;;
27580;SDS011;63557;52.302;7.964;2023-08-31T01:15:32;30.38;;;15.95;;
27580;SDS011;63557;52.302;7.964;2023-08-31T01:20:45;21.70;;;14.45;;
27580;SDS011;63557;52.302;7.964;2023-08-31T01:25:47;27.02;;;14.23;;
27580;SDS011;63557;52.302;7.964;2023-08-31T01:30:48;26.95;;;14.45;;
27580;SDS011;63557;52.302;7.964;2023-08-31T01:35:49;21.17;;;13.53;;
27580;SDS011;63557;52.302;7.964;2023-08-31T01:41:05;29.20;;;15.27;;
27580;SDS011;63557;52.302;7.964;2023-08-31T01:46:07;23.75;;;14.95;;
27580;SDS011;63557;52.302;7.964;2023-08-31T01:51:07;25.67;;;15.48;;
27580;SDS011;63557;52.302;7.964;2023-08-31T01:56:08;28.10;;;15.18;;
27580;SDS011;63557;52.302;7.964;2023-08-31T02:01:08;28.60;;;15.43;;
27580;SDS011;63557;52.302;7.964;2023-08-31T02:06:08;23.37;;;13.93;;
27580;SDS011;63557;52.302;7.964;2023-08-31T02:11:09;22.17;;;13.07;;
27580;SDS011;63557;52.302;7.964;2023-08-31T02:16:09;29.87;;;14.47;;
27580;SDS011;63557;52.302;7.964;2023-08-31T02:21:10;23.33;;;14.65;;
27580;SDS011;63557;52.302;7.964;2023-08-31T02:26:11;31.03;;;16.27;;
27580;SDS011;63557;52.302;7.964;2023-08-31T02:31:11;23.92;;;15.63;;
27580;SDS011;63557;52.302;7.964;2023-08-31T02:36:12;26.20;;;15.30;;
27580;SDS011;63557;52.302;7.964;2023-08-31T02:41:12;28.93;;;16.23;;
27580;SDS011;63557;52.302;7.964;2023-08-31T02:46:13;30.63;;;15.77;;
27580;SDS011;63557;52.302;7.964;2023-08-31T02:51:14;27.88;;;16.05;;
27580;SDS011;63557;52.302;7.964;2023-08-31T02:56:14;26.77;;;15.13;;
27580;SDS011;63557;52.302;7.964;2023-08-31T03:01:15;28.88;;;16.60;;
27580;SDS011;63557;52.302;7.964;2023-08-31T03:06:20;31.40;;;17.20;;
27580;SDS011;63557;52.302;7.964;2023-08-31T03:11:20;28.77;;;16.30;;
27580;SDS011;63557;52.302;7.964;2023-08-31T03:16:20;27.20;;;16.65;;
27580;SDS011;63557;52.302;7.964;2023-08-31T03:21:21;34.22;;;16.83;;
27580;SDS011;63557;52.302;7.964;2023-08-31T03:26:21;31.85;;;17.45;;
27580;SDS011;63557;52.302;7.964;2023-08-31T03:31:22;29.60;;;17.20;;
27580;SDS011;63557;52.302;7.964;2023-08-31T03:36:22;31.52;;;19.27;;
27580;SDS011;63557;52.302;7.964;2023-08-31T03:41:24;27.15;;;17.70;;
27580;SDS011;63557;52.302;7.964;2023-08-31T03:46:24;29.70;;;18.02;;
27580;SDS011;63557;52.302;7.964;2023-08-31T03:51:25;34.47;;;18.77;;
27580;SDS011;63557;52.302;7.964;2023-08-31T03:56:25;31.40;;;19.07;;
27580;SDS011;63557;52.302;7.964;2023-08-31T04:01:26;28.65;;;17.02;;
27580;SDS011;63557;52.302;7.964;2023-08-31T04:06:26;37.75;;;18.67;;
27580;SDS011;63557;52.302;7.964;2023-08-31T04:11:28;28.92;;;17.95;;
27580;SDS011;63557;52.302;7.964;2023-08-31T04:16:31;26.95;;;17.08;;
27580;SDS011;63557;52.302;7.964;2023-08-31T04:21:32;25.92;;;18.05;;
27580;SDS011;63557;52.302;7.964;2023-08-31T04:26:32;34.75;;;18.58;;
27580;SDS011;63557;52.302;7.964;2023-08-31T04:31:35;26.77;;;18.17;;
27580;SDS011;63557;52.302;7.964;2023-08-31T04:36:36;33.00;;;20.77;;
27580;SDS011;63557;52.302;7.964;2023-08-31T04:41:36;34.77;;;20.70;;
27580;SDS011;63557;52.302;7.964;2023-08-31T04:46:37;29.83;;;19.50;;
27580;SDS011;63557;52.302;7.964;2023-08-31T04:51:38;30.95;;;20.77;;
27580;SDS011;63557;52.302;7.964;2023-08-31T04:56:39;35.78;;;24.67;;
27580;SDS011;63557;52.302;7.964;2023-08-31T05:01:39;44.45;;;26.65;;
27580;SDS011;63557;52.302;7.964;2023-08-31T05:06:40;39.53;;;25.17;;
27580;SDS011;63557;52.302;7.964;2023-08-31T05:11:40;37.87;;;25.70;;
27580;SDS011;63557;52.302;7.964;2023-08-31T05:16:40;41.97;;;26.57;;
27580;SDS011;63557;52.302;7.964;2023-08-31T05:21:41;37.13;;;26.00;;
27580;SDS011;63557;52.302;7.964;2023-08-31T05:26:41;40.10;;;27.67;;
27580;SDS011;63557;52.302;7.964;2023-08-31T05:31:42;41.00;;;27.77;;
27580;SDS011;63557;52.302;7.964;2023-08-31T05:36:42;41.13;;;27.63;;
27580;SDS011;63557;52.302;7.964;2023-08-31T05:41:43;40.20;;;26.43;;
27580;SDS011;63557;52.302;7.964;2023-08-31T05:46:43;37.20;;;26.83;;
27580;SDS011;63557;52.302;7.964;2023-08-31T05:51:43;39.83;;;28.83;;
27580;SDS011;63557;52.302;7.964;2023-08-31T05:56:44;39.88;;;28.77;;
27580;SDS011;63557;52.302;7.964;2023-08-31T06:01:44;39.13;;;28.58;;
27580;SDS011;63557;52.302;7.964;2023-08-31T06:06:45;40.27;;;26.80;;
27580;SDS011;63557;52.302;7.964;2023-08-31T06:11:47;43.67;;;28.40;;
27580;SDS011;63557;52.302;7.964;2023-08-31T06:16:47;37.73;;;27.10;;
27580;SDS011;63557;52.302;7.964;2023-08-31T06:21:47;36.45;;;26.90;;
27580;SDS011;63557;52.302;7.964;2023-08-31T06:26:48;35.95;;;27.30;;
27580;SDS011;63557;52.302;7.964;2023-08-31T06:31:48;29.08;;;23.80;;
27580;SDS011;63557;52.302;7.964;2023-08-31T06:36:49;36.13;;;25.53;;
27580;SDS011;63557;52.302;7.964;2023-08-31T06:41:49;28.25;;;22.98;;
27580;SDS011;63557;52.302;7.964;2023-08-31T06:46:50;31.98;;;23.98;;
27580;SDS011;63557;52.302;7.964;2023-08-31T06:51:50;33.30;;;24.00;;
27580;SDS011;63557;52.302;7.964;2023-08-31T06:56:50;37.10;;;25.53;;
27580;SDS011;63557;52.302;7.964;2023-08-31T07:01:51;31.00;;;24.57;;
27580;SDS011;63557;52.302;7.964;2023-08-31T07:06:51;29.10;;;24.03;;
27580;SDS011;63557;52.302;7.964;2023-08-31T07:11:52;36.38;;;25.10;;
27580;SDS011;63557;52.302;7.964;2023-08-31T07:16:52;32.07;;;26.13;;
27580;SDS011;63557;52.302;7.964;2023-08-31T07:21:52;37.50;;;27.50;;
27580;SDS011;63557;52.302;7.964;2023-08-31T07:26:54;30.05;;;22.58;;
27580;SDS011;63557;52.302;7.964;2023-08-31T07:31:55;29.00;;;23.93;;
27580;SDS011;63557;52.302;7.964;2023-08-31T07:36:55;25.80;;;22.00;;
27580;SDS011;63557;52.302;7.964;2023-08-31T07:41:56;30.33;;;23.37;;
27580;SDS011;63557;52.302;7.964;2023-08-31T07:46:57;28.80;;;21.92;;
27580;SDS011;63557;52.302;7.964;2023-08-31T07:51:57;29.60;;;22.90;;
27580;SDS011;63557;52.302;7.964;2023-08-31T07:56:58;28.52;;;22.40;;
27580;SDS011;63557;52.302;7.964;2023-08-31T08:01:59;24.83;;;20.02;;
27580;SDS011;63557;52.302;7.964;2023-08-31T08:06:59;26.87;;;21.00;;
27580;SDS011;63557;52.302;7.964;2023-08-31T08:11:59;24.87;;;19.40;;
27580;SDS011;63557;52.302;7.964;2023-08-31T08:17:00;22.37;;;18.60;;
27580;SDS011;63557;52.302;7.964;2023-08-31T08:22:00;21.75;;;19.40;;
27580;SDS011;63557;52.302;7.964;2023-08-31T08:27:01;24.87;;;17.73;;
27580;SDS011;63557;52.302;7.964;2023-08-31T08:32:01;21.60;;;17.42;;
27580;SDS011;63557;52.302;7.964;2023-08-31T08:37:03;21.75;;;18.05;;
27580;SDS011;63557;52.302;7.964;2023-08-31T08:42:04;22.88;;;18.10;;
27580;SDS011;63557;52.302;7.964;2023-08-31T08:47:05;19.60;;;14.60;;
27580;SDS011;63557;52.302;7.964;2023-08-31T08:52:06;16.17;;;13.57;;
27580;SDS011;63557;52.302;7.964;2023-08-31T08:57:07;20.20;;;14.00;;
27580;SDS011;63557;52.302;7.964;2023-08-31T09:02:08;19.23;;;13.40;;
27580;SDS011;63557;52.302;7.964;2023-08-31T09:07:10;14.70;;;11.55;;
27580;SDS011;63557;52.302;7.964;2023-08-31T09:12:10;13.02;;;11.15;;
27580;SDS011;63557;52.302;7.964;2023-08-31T09:17:11;12.90;;;10.52;;
27580;SDS011;63557;52.302;7.964;2023-08-31T09:22:11;14.77;;;11.83;;
27580;SDS011;63557;52.302;7.964;2023-08-31T09:27:12;12.55;;;10.20;;
27580;SDS011;63557;52.302;7.964;2023-08-31T09:32:16;10.90;;;9.55;;
27580;SDS011;63557;52.302;7.964;2023-08-31T09:37:16;10.88;;;8.15;;
27580;SDS011;63557;52.302;7.964;2023-08-31T09:42:17;9.73;;;6.40;;
27580;SDS011;63557;52.302;7.964;2023-08-31T09:47:17;10.57;;;7.53;;
27580;SDS011;63557;52.302;7.964;2023-08-31T09:52:19;8.45;;;6.55;;
27580;SDS011;63557;52.302;7.964;2023-08-31T09:57:20;6.95;;;5.20;;
27580;SDS011;63557;52.302;7.964;2023-08-31T10:02:22;5.93;;;4.60;;
27580;SDS011;63557;52.302;7.964;2023-08-31T10:07:22;5.70;;;3.80;;
27580;SDS011;63557;52.302;7.964;2023-08-31T10:12:23;9.93;;;3.55;;
27580;SDS011;63557;52.302;7.964;2023-08-31T10:17:24;3.55;;;2.97;;
27580;SDS011;63557;52.302;7.964;2023-08-31T10:22:26;5.53;;;3.42;;
27580;SDS011;63557;52.302;7.964;2023-08-31T10:27:27;3.87;;;2.80;;
27580;SDS011;63557;52.302;7.964;2023-08-31T10:32:27;3.88;;;2.58;;
27580;SDS011;63557;52.302;7.964;2023-08-31T10:37:27;3.50;;;2.10;;
27580;SDS011;63557;52.302;7.964;2023-08-31T10:42:28;3.43;;;1.97;;
27580;SDS011;63557;52.302;7.964;2023-08-31T10:47:36;3.83;;;1.80;;
27580;SDS011;63557;52.302;7.964;2023-08-31T10:52:42;4.20;;;2.47;;
27580;SDS011;63557;52.302;7.964;2023-08-31T10:57:43;5.32;;;2.85;;
27580;SDS011;63557;52.302;7.964;2023-08-31T11:02:44;3.80;;;2.50;;
27580;SDS011;63557;52.302;7.964;2023-08-31T11:12:52;3.93;;;2.60;;
27580;SDS011;63557;52.302;7.964;2023-08-31T11:17:54;4.57;;;2.50;;
27580;SDS011;63557;52.302;7.964;2023-08-31T11:22:54;3.97;;;2.17;;
27580;SDS011;63557;52.302;7.964;2023-08-31T11:27:55;3.43;;;2.10;;
27580;SDS011;63557;52.302;7.964;2023-08-31T11:32:56;11.82;;;4.40;;
27580;SDS011;63557;52.302;7.964;2023-08-31T11:37:56;9.93;;;4.30;;
27580;SDS011;63557;52.302;7.964;2023-08-31T11:42:57;6.70;;;3.30;;
27580;SDS011;63557;52.302;7.964;2023-08-31T11:47:58;5.88;;;2.80;;
27580;SDS011;63557;52.302;7.964;2023-08-31T11:52:59;5.57;;;2.90;;
27580;SDS011;63557;52.302;7.964;2023-08-31T11:57:59;12.10;;;2.77;;
27580;SDS011;63557;52.302;7.964;2023-08-31T12:03:00;5.33;;;2.50;;
27580;SDS011;63557;52.302;7.964;2023-08-31T12:08:00;5.00;;;2.63;;
27580;SDS011;63557;52.302;7.964;2023-08-31T12:13:08;6.75;;;3.28;;
27580;SDS011;63557;52.302;7.964;2023-08-31T12:18:09;6.13;;;3.10;;
27580;SDS011;63557;52.302;7.964;2023-08-31T12:23:10;7.28;;;3.90;;
27580;SDS011;63557;52.302;7.964;2023-08-31T12:28:11;7.75;;;3.85;;
27580;SDS011;63557;52.302;7.964;2023-08-31T12:33:11;6.23;;;3.43;;
27580;SDS011;63557;52.302;7.964;2023-08-31T12:38:11;6.83;;;2.90;;
27580;SDS011;63557;52.302;7.964;2023-08-31T12:43:12;6.43;;;2.55;;
27580;SDS011;63557;52.302;7.964;2023-08-31T12:48:12;7.60;;;3.63;;
27580;SDS011;63557;52.302;7.964;2023-08-31T12:53:13;7.65;;;3.80;;
27580;SDS011;63557;52.302;7.964;2023-08-31T12:58:14;6.93;;;3.65;;
27580;SDS011;63557;52.302;7.964;2023-08-31T13:03:14;6.67;;;2.53;;
27580;SDS011;63557;52.302;7.964;2023-08-31T13:08:15;6.10;;;2.30;;
27580;SDS011;63557;52.302;7.964;2023-08-31T13:13:15;5.20;;;2.37;;
27580;SDS011;63557;52.302;7.964;2023-08-31T13:18:16;6.22;;;2.22;;
27580;SDS011;63557;52.302;7.964;2023-08-31T13:23:16;7.03;;;2.20;;
27580;SDS011;63557;52.302;7.964;2023-08-31T13:28:17;5.15;;;1.90;;
27580;SDS011;63557;52.302;7.964;2023-08-31T13:33:17;7.05;;;2.22;;
27580;SDS011;63557;52.302;7.964;2023-08-31T13:38:18;8.93;;;2.30;;
27580;SDS011;63557;52.302;7.964;2023-08-31T13:43:18;6.63;;;1.73;;
27580;SDS011;63557;52.302;7.964;2023-08-31T13:48:18;5.07;;;1.73;;
27580;SDS011;63557;52.302;7.964;2023-08-31T13:53:19;3.25;;;1.60;;
27580;SDS011;63557;52.302;7.964;2023-08-31T13:58:19;6.17;;;1.43;;
27580;SDS011;63557;52.302;7.964;2023-08-31T14:03:19;4.90;;;1.70;;
27580;SDS011;63557;52.302;7.964;2023-08-31T14:08:20;7.93;;;1.80;;
27580;SDS011;63557;52.302;7.964;2023-08-31T14:13:20;6.20;;;1.60;;
27580;SDS011;63557;52.302;7.964;2023-08-31T14:18:21;3.57;;;1.40;;
27580;SDS011;63557;52.302;7.964;2023-08-31T14:23:21;4.43;;;1.75;;
27580;SDS011;63557;52.302;7.964;2023-08-31T14:28:22;4.10;;;1.40;;
27580;SDS011;63557;52.302;7.964;2023-08-31T14:33:22;4.93;;;1.60;;
27580;SDS011;63557;52.302;7.964;2023-08-31T14:38:23;5.93;;;1.83;;
27580;SDS011;63557;52.302;7.964;2023-08-31T14:43:23;3.45;;;1.45;;
27580;SDS011;63557;52.302;7.964;2023-08-31T14:48:24;4.63;;;1.47;;
27580;SDS011;63557;52.302;7.964;2023-08-31T14:53:25;3.80;;;1.55;;
27580;SDS011;63557;52.302;7.964;2023-08-31T14:58:25;3.42;;;1.50;;
27580;SDS011;63557;52.302;7.964;2023-08-31T15:03:26;4.23;;;1.70;;
27580;SDS011;63557;52.302;7.964;2023-08-31T15:08:39;6.38;;;2.47;;
27580;SDS011;63557;52.302;7.964;2023-08-31T15:13:41;2.38;;;1.40;;
27580;SDS011;63557;52.302;7.964;2023-08-31T15:18:42;5.85;;;1.50;;
27580;SDS011;63557;52.302;7.964;2023-08-31T15:23:43;2.63;;;1.50;;
27580;SDS011;63557;52.302;7.964;2023-08-31T15:28:44;3.70;;;1.42;;
27580;SDS011;63557;52.302;7.964;2023-08-31T15:33:44;1.87;;;1.40;;
27580;SDS011;63557;52.302;7.964;2023-08-31T15:38:45;3.50;;;1.20;;
27580;SDS011;63557;52.302;7.964;2023-08-31T15:43:45;2.88;;;1.30;;
27580;SDS011;63557;52.302;7.964;2023-08-31T15:48:47;3.85;;;1.63;;
27580;SDS011;63557;52.302;7.964;2023-08-31T15:53:48;3.13;;;1.40;;
27580;SDS011;63557;52.302;7.964;2023-08-31T15:58:48;2.83;;;1.60;;
27580;SDS011;63557;52.302;7.964;2023-08-31T16:03:48;4.10;;;1.53;;
27580;SDS011;63557;52.302;7.964;2023-08-31T16:08:49;4.50;;;1.48;;
27580;SDS011;63557;52.302;7.964;2023-08-31T16:13:49;2.90;;;1.37;;
27580;SDS011;63557;52.302;7.964;2023-08-31T16:18:50;3.60;;;1.27;;
27580;SDS011;63557;52.302;7.964;2023-08-31T16:23:50;5.47;;;1.77;;
27580;SDS011;63557;52.302;7.964;2023-08-31T16:28:50;7.67;;;2.10;;
27580;SDS011;63557;52.302;7.964;2023-08-31T16:33:51;3.47;;;1.47;;
27580;SDS011;63557;52.302;7.964;2023-08-31T16:38:51;4.93;;;1.47;;
27580;SDS011;63557;52.302;7.964;2023-08-31T16:43:52;9.77;;;2.37;;
27580;SDS011;63557;52.302;7.964;2023-08-31T16:48:53;7.55;;;1.52;;
27580;SDS011;63557;52.302;7.964;2023-08-31T16:53:54;8.33;;;1.53;;
27580;SDS011;63557;52.302;7.964;2023-08-31T16:58:54;7.13;;;1.70;;
27580;SDS011;63557;52.302;7.964;2023-08-31T17:03:56;7.20;;;1.80;;
27580;SDS011;63557;52.302;7.964;2023-08-31T17:08:56;8.13;;;2.20;;
27580;SDS011;63557;52.302;7.964;2023-08-31T17:13:57;6.93;;;2.05;;
27580;SDS011;63557;52.302;7.964;2023-08-31T17:18:57;6.83;;;2.90;;
27580;SDS011;63557;52.302;7.964;2023-08-31T17:23:58;5.03;;;2.00;;
27580;SDS011;63557;52.302;7.964;2023-08-31T17:28:58;5.87;;;1.80;;
27580;SDS011;63557;52.302;7.964;2023-08-31T17:33:58;10.53;;;2.40;;
27580;SDS011;63557;52.302;7.964;2023-08-31T17:38:59;7.50;;;2.03;;
27580;SDS011;63557;52.302;7.964;2023-08-31T17:43:59;7.87;;;1.97;;
27580;SDS011;63557;52.302;7.964;2023-08-31T17:49:00;10.13;;;2.90;;
27580;SDS011;63557;52.302;7.964;2023-08-31T17:54:01;5.00;;;1.95;;
27580;SDS011;63557;52.302;7.964;2023-08-31T17:59:01;17.30;;;2.75;;
27580;SDS011;63557;52.302;7.964;2023-08-31T18:04:04;8.55;;;2.40;;
27580;SDS011;63557;52.302;7.964;2023-08-31T18:09:04;12.30;;;2.88;;
27580;SDS011;63557;52.302;7.964;2023-08-31T18:14:05;6.80;;;2.83;;
27580;SDS011;63557;52.302;7.964;2023-08-31T18:19:07;10.70;;;2.78;;
27580;SDS011;63557;52.302;7.964;2023-08-31T18:24:07;7.45;;;2.80;;
27580;SDS011;63557;52.302;7.964;2023-08-31T18:29:08;12.07;;;3.10;;
27580;SDS011;63557;52.302;7.964;2023-08-31T18:34:08;7.13;;;3.13;;
27580;SDS011;63557;52.302;7.964;2023-08-31T18:39:09;11.20;;;3.55;;
27580;SDS011;63557;52.302;7.964;2023-08-31T18:44:09;8.43;;;3.15;;
27580;SDS011;63557;52.302;7.964;2023-08-31T18:49:10;12.97;;;3.53;;
27580;SDS011;63557;52.302;7.964;2023-08-31T18:54:10;10.23;;;3.60;;
27580;SDS011;63557;52.302;7.964;2023-08-31T18:59:10;13.45;;;3.83;;
27580;SDS011;63557;52.302;7.964;2023-08-31T19:04:11;12.67;;;3.70;;
27580;SDS011;63557;52.302;7.964;2023-08-31T19:09:11;6.13;;;3.70;;
27580;SDS011;63557;52.302;7.964;2023-08-31T19:14:12;5.32;;;3.00;;
27580;SDS011;63557;52.302;7.964;2023-08-31T19:19:12;10.17;;;3.53;;
27580;SDS011;63557;52.302;7.964;2023-08-31T19:24:12;11.10;;;4.10;;
27580;SDS011;63557;52.302;7.964;2023-08-31T19:29:13;7.97;;;3.53;;
27580;SDS011;63557;52.302;7.964;2023-08-31T19:34:13;7.47;;;3.90;;
27580;SDS011;63557;52.302;7.964;2023-08-31T19:39:13;10.43;;;4.10;;
27580;SDS011;63557;52.302;7.964;2023-08-31T19:44:14;7.47;;;3.80;;
27580;SDS011;63557;52.302;7.964;2023-08-31T19:49:14;8.23;;;3.85;;
27580;SDS011;63557;52.302;7.964;2023-08-31T19:54:15;7.57;;;3.95;;
27580;SDS011;63557;52.302;7.964;2023-08-31T19:59:15;9.73;;;4.33;;
27580;SDS011;63557;52.302;7.964;2023-08-31T20:04:17;13.30;;;7.47;;
27580;SDS011;63557;52.302;7.964;2023-08-31T20:09:17;8.63;;;5.53;;
27580;SDS011;63557;52.302;7.964;2023-08-31T20:14:17;16.75;;;5.82;;
27580;SDS011;63557;52.302;7.964;2023-08-31T20:19:18;8.32;;;6.40;;
27580;SDS011;63557;52.302;7.964;2023-08-31T20:24:19;6.53;;;5.30;;
27580;SDS011;63557;52.302;7.964;2023-08-31T20:29:19;9.23;;;4.40;;
27580;SDS011;63557;52.302;7.964;2023-08-31T20:34:20;9.15;;;4.90;;
27580;SDS011;63557;52.302;7.964;2023-08-31T20:39:20;8.37;;;4.87;;
27580;SDS011;63557;52.302;7.964;2023-08-31T20:44:21;13.77;;;4.88;;
27580;SDS011;63557;52.302;7.964;2023-08-31T20:49:22;15.45;;;6.38;;
27580;SDS011;63557;52.302;7.964;2023-08-31T20:54:22;11.73;;;5.10;;
27580;SDS011;63557;52.302;7.964;2023-08-31T20:59:23;12.57;;;5.03;;
27580;SDS011;63557;52.302;7.964;2023-08-31T21:04:23;11.17;;;4.43;;
27580;SDS011;63557;52.302;7.964;2023-08-31T21:09:23;17.05;;;7.38;;
27580;SDS011;63557;52.302;7.964;2023-08-31T21:14:24;11.13;;;7.43;;
27580;SDS011;63557;52.302;7.964;2023-08-31T21:19:24;17.55;;;9.90;;
27580;SDS011;63557;52.302;7.964;2023-08-31T21:24:25;16.10;;;10.53;;
27580;SDS011;63557;52.302;7.964;2023-08-31T21:29:25;20.10;;;13.07;;
27580;SDS011;63557;52.302;7.964;2023-08-31T21:34:26;18.83;;;12.82;;
27580;SDS011;63557;52.302;7.964;2023-08-31T21:39:26;17.02;;;12.90;;
27580;SDS011;63557;52.302;7.964;2023-08-31T21:44:26;20.17;;;13.10;;
27580;SDS011;63557;52.302;7.964;2023-08-31T21:49:27;21.30;;;13.63;;
27580;SDS011;63557;52.302;7.964;2023-08-31T21:54:27;18.80;;;12.63;;
27580;SDS011;63557;52.302;7.964;2023-08-31T21:59:27;19.47;;;13.87;;
27580;SDS011;63557;52.302;7.964;2023-08-31T22:04:28;23.10;;;13.57;;
27580;SDS011;63557;52.302;7.964;2023-08-31T22:09:28;28.47;;;15.90;;
27580;SDS011;63557;52.302;7.964;2023-08-31T22:14:28;20.73;;;15.90;;
27580;SDS011;63557;52.302;7.964;2023-08-31T22:19:29;30.35;;;18.80;;
27580;SDS011;63557;52.302;7.964;2023-08-31T22:24:29;24.80;;;19.05;;
27580;SDS011;63557;52.302;7.964;2023-08-31T22:29:30;29.67;;;18.45;;
27580;SDS011;63557;52.302;7.964;2023-08-31T22:34:30;28.45;;;21.33;;
27580;SDS011;63557;52.302;7.964;2023-08-31T22:39:31;28.80;;;20.03;;
27580;SDS011;63557;52.302;7.964;2023-08-31T22:44:31;28.80;;;19.42;;
27580;SDS011;63557;52.302;7.964;2023-08-31T22:49:31;32.42;;;21.25;;
27580;SDS011;63557;52.302;7.964;2023-08-31T22:54:32;29.83;;;22.15;;
27580;SDS011;63557;52.302;7.964;2023-08-31T22:59:33;30.97;;;21.10;;
27580;SDS011;63557;52.302;7.964;2023-08-31T23:04:33;31.13;;;20.77;;
27580;SDS011;63557;52.302;7.964;2023-08-31T23:09:34;33.53;;;22.10;;
27580;SDS011;63557;52.302;7.964;2023-08-31T23:14:35;36.03;;;24.90;;
27580;SDS011;63557;52.302;7.964;2023-08-31T23:19:36;36.38;;;26.55;;
27580;SDS011;63557;52.302;7.964;2023-08-31T23:24:36;34.63;;;28.13;;
27580;SDS011;63557;52.302;7.964;2023-08-31T23:29:36;35.15;;;28.95;;
27580;SDS011;63557;52.302;7.964;2023-08-31T23:34:37;35.97;;;26.63;;
27580;SDS011;63557;52.302;7.964;2023-08-31T23:39:37;31.90;;;24.87;;
27580;SDS011;63557;52.302;7.964;2023-08-31T23:44:38;30.83;;;22.88;;
27580;SDS011;63557;52.302;7.964;2023-08-31T23:49:38;24.57;;;21.43;;
27580;SDS011;63557;52.302;7.964;2023-08-31T23:54:38;28.30;;;22.57;;
27580;SDS011;63557;52.302;7.964;2023-08-31T23:59:40;26.98;;;20.83;;
